createdAt,value
2023-02-23T00:02:06.279Z,100428.75
2023-02-23T00:04:34.074Z,100427.06
2023-02-23T00:07:00.923Z,100429.69
2023-02-23T00:09:35.172Z,100423.66
2023-02-23T00:12:09.230Z,100422.78
2023-02-23T00:14:37.777Z,100414.97
2023-02-23T00:17:05.190Z,100424.56
2023-02-23T00:19:33.470Z,100420.22
2023-02-23T00:22:01.089Z,100421.06
2023-02-23T00:24:27.641Z,100414.09
2023-02-23T00:26:54.153Z,100413.22
2023-02-23T00:29:22.810Z,100412.38
2023-02-23T00:31:50.979Z,100425.44
2023-02-23T00:34:21.259Z,100422.81
2023-02-23T00:36:51.022Z,100419.34
2023-02-23T00:39:26.499Z,100414.16
2023-02-23T00:41:53.820Z,100419.34
2023-02-23T00:44:21.748Z,100412.38
2023-02-23T00:46:52.239Z,100409.75
2023-02-23T00:49:20.821Z,100409.72
2023-02-23T00:51:47.830Z,100410.63
2023-02-23T00:54:15.900Z,100412.38
2023-02-23T00:56:42.627Z,100416.69
2023-02-23T00:59:09.153Z,100415.84
2023-02-23T01:01:37.411Z,100415.84
2023-02-23T01:04:05.261Z,100414.94
2023-02-23T01:06:32.065Z,100418.41
2023-02-23T01:08:58.870Z,100414.09
2023-02-23T01:11:27.908Z,100414.09
2023-02-23T01:13:58.158Z,100419.31
2023-02-23T01:16:28.918Z,100419.31
2023-02-23T01:18:57.877Z,100413.22
2023-02-23T01:21:30.638Z,100411.50
2023-02-23T01:23:57.351Z,100410.66
2023-02-23T01:26:26.739Z,100407.19
2023-02-23T01:29:00.606Z,100413.25
2023-02-23T01:31:28.705Z,100407.19
2023-02-23T01:34:01.090Z,100410.66
2023-02-23T01:36:32.028Z,100408.97
2023-02-23T01:39:00.086Z,100410.75
2023-02-23T01:41:28.712Z,100404.63
2023-02-23T01:43:55.472Z,100404.59
2023-02-23T01:46:22.131Z,100404.59
2023-02-23T01:48:48.865Z,100399.41
2023-02-23T01:51:20.927Z,100400.34
2023-02-23T01:53:58.191Z,100402.19
2023-02-23T01:56:30.087Z,100403.91
2023-02-23T01:58:59.251Z,100398.72
2023-02-23T02:01:25.764Z,100403.09
2023-02-23T02:03:56.793Z,100396.16
2023-02-23T02:06:28.785Z,100401.34
2023-02-23T02:09:00.994Z,100402.25
2023-02-23T02:11:36.757Z,100397.97
2023-02-23T02:14:17.307Z,100393.63
2023-02-23T02:17:30.613Z,100394.50
2023-02-23T02:20:31.494Z,100397.09
2023-02-23T02:23:27.395Z,100403.09
2023-02-23T02:26:11.636Z,100400.50
2023-02-23T02:28:59.670Z,100397.00
2023-02-23T02:31:32.122Z,100403.97
2023-02-23T02:34:25.463Z,100397.94
2023-02-23T02:37:34.663Z,100407.53
2023-02-23T02:40:16.467Z,100396.22
2023-02-23T02:43:14.941Z,100391.00
2023-02-23T02:45:55.262Z,100400.56
2023-02-23T02:48:46.617Z,100397.94
2023-02-23T02:51:28.360Z,100398.81
2023-02-23T02:54:10.521Z,100392.72
2023-02-23T02:56:42.908Z,100397.94
2023-02-23T02:59:31.877Z,100384.91
2023-02-23T03:02:17.816Z,100380.56
2023-02-23T03:05:02.697Z,100383.22
2023-02-23T03:07:55.234Z,100388.44
2023-02-23T03:10:54.163Z,100378.03
2023-02-23T03:13:49.169Z,100384.16
2023-02-23T03:16:59.074Z,100392.88
2023-02-23T03:19:49.038Z,100391.13
2023-02-23T03:22:42.299Z,100384.16
2023-02-23T03:25:37.174Z,100393.75
2023-02-23T03:28:40.391Z,100388.53
2023-02-23T03:31:48.232Z,100391.09
2023-02-23T03:34:37.383Z,100392.84
2023-02-23T03:37:34.806Z,100392.88
2023-02-23T03:40:37.395Z,100397.19
2023-02-23T03:43:28.311Z,100399.84
2023-02-23T03:46:15.649Z,100400.78
2023-02-23T03:49:02.921Z,100402.59
2023-02-23T03:51:52.395Z,100402.56
2023-02-23T03:54:45.713Z,100411.25
2023-02-23T03:57:35.647Z,100402.53
2023-02-23T04:00:26.949Z,100399.91
2023-02-23T04:03:13.396Z,100407.84
2023-02-23T04:06:00.677Z,100395.69
2023-02-23T04:08:52.438Z,100413.94
2023-02-23T04:11:45.737Z,100415.69
2023-02-23T04:14:19.518Z,100406.97
2023-02-23T04:16:47.225Z,100407.06
2023-02-23T04:19:14.012Z,100417.53
2023-02-23T04:21:40.499Z,100414.94
2023-02-23T04:24:06.980Z,100414.94
2023-02-23T04:26:33.421Z,100421.03
2023-02-23T04:28:59.906Z,100421.00
2023-02-23T04:31:27.112Z,100421.00
2023-02-23T04:33:53.771Z,100425.28
2023-02-23T04:36:20.236Z,100429.72
2023-02-23T04:38:46.672Z,100428.88
2023-02-23T04:41:13.103Z,100428.84
2023-02-23T04:43:39.562Z,100421.91
2023-02-23T04:46:05.990Z,100421.06
2023-02-23T04:48:32.513Z,100431.47
2023-02-23T04:50:59.207Z,100423.66
2023-02-23T04:53:26.063Z,100425.44
2023-02-23T04:55:52.701Z,100430.72
2023-02-23T04:58:19.139Z,100424.63
2023-02-23T05:00:45.710Z,100425.50
2023-02-23T05:03:12.806Z,100429.84
2023-02-23T05:05:39.750Z,100421.19
2023-02-23T05:08:06.310Z,100427.31
2023-02-23T05:10:32.842Z,100428.16
2023-02-23T05:13:01.060Z,100426.41
2023-02-23T05:15:27.992Z,100428.16
2023-02-23T05:17:55.801Z,100437.72
2023-02-23T05:20:22.473Z,100429.84
2023-02-23T05:22:48.956Z,100429.00
2023-02-23T05:25:15.483Z,100433.34
2023-02-23T05:27:41.945Z,100432.44
2023-02-23T05:30:10.002Z,100441.16
2023-02-23T05:32:36.609Z,100436.81
2023-02-23T05:35:03.631Z,100440.31
2023-02-23T05:37:30.147Z,100441.22
2023-02-23T05:39:56.571Z,100439.47
2023-02-23T05:42:23.015Z,100438.56
2023-02-23T05:44:49.463Z,100434.25
2023-02-23T05:47:15.889Z,100436.88
2023-02-23T05:49:42.724Z,100439.53
2023-02-23T05:52:09.267Z,100443.91
2023-02-23T05:54:35.684Z,100443.03
2023-02-23T05:57:02.171Z,100441.31
2023-02-23T05:59:28.888Z,100449.09
2023-02-23T06:01:55.402Z,100449.94
2023-02-23T06:04:23.291Z,100449.03
2023-02-23T06:06:50.062Z,100447.28
2023-02-23T06:09:16.587Z,100453.44
2023-02-23T06:11:43.138Z,100452.59
2023-02-23T06:14:09.642Z,100451.75
2023-02-23T06:16:36.307Z,100454.34
2023-02-23T06:19:02.995Z,100453.50
2023-02-23T06:21:29.529Z,100459.56
2023-02-23T06:23:57.166Z,100458.69
2023-02-23T06:26:23.574Z,100460.47
2023-02-23T06:28:50.566Z,100465.69
2023-02-23T06:31:17.257Z,100463.94
2023-02-23T06:33:43.865Z,100471.72
2023-02-23T06:36:10.477Z,100468.25
2023-02-23T06:38:38.078Z,100471.75
2023-02-23T06:41:09.296Z,100471.72
2023-02-23T06:43:36.244Z,100469.16
2023-02-23T06:46:03.318Z,100482.19
2023-02-23T06:48:29.838Z,100481.34
2023-02-23T06:50:59.087Z,100483.13
2023-02-23T06:53:25.582Z,100480.53
2023-02-23T06:55:52.004Z,100488.31
2023-02-23T06:58:18.459Z,100486.56
2023-02-23T07:00:44.878Z,100497.00
2023-02-23T07:03:11.482Z,100500.50
2023-02-23T07:05:37.964Z,100497.00
2023-02-23T07:08:05.472Z,100502.22
2023-02-23T07:10:32.244Z,100501.38
2023-02-23T07:12:59.626Z,100504.00
2023-02-23T07:15:26.236Z,100511.78
2023-02-23T07:17:52.844Z,100509.16
2023-02-23T07:20:19.706Z,100511.75
2023-02-23T07:22:46.195Z,100517.00
2023-02-23T07:25:12.637Z,100514.41
2023-02-23T07:27:39.496Z,100511.84
2023-02-23T07:30:06.717Z,100519.63
2023-02-23T07:32:33.283Z,100518.75
2023-02-23T07:34:59.817Z,100524.88
2023-02-23T07:37:26.360Z,100528.34
2023-02-23T07:39:52.841Z,100526.66
2023-02-23T07:42:19.248Z,100529.25
2023-02-23T07:44:45.692Z,100532.69
2023-02-23T07:47:13.407Z,100528.31
2023-02-23T07:49:39.869Z,100537.91
2023-02-23T07:52:06.550Z,100535.28
2023-02-23T07:54:33.622Z,100534.44
2023-02-23T07:57:00.265Z,100537.94
2023-02-23T07:59:26.839Z,100539.66
2023-02-23T08:01:53.304Z,100551.81
2023-02-23T08:04:19.979Z,100547.50
2023-02-23T08:06:46.409Z,100555.28
2023-02-23T08:09:12.976Z,100548.34
2023-02-23T08:11:40.108Z,100548.31
2023-02-23T08:14:06.584Z,100550.88
2023-02-23T08:16:33.700Z,100556.06
2023-02-23T08:19:01.162Z,100551.72
2023-02-23T08:21:29.227Z,100556.06
2023-02-23T08:23:56.904Z,100556.88
2023-02-23T08:26:25.379Z,100561.28
2023-02-23T08:28:52.843Z,100565.59
2023-02-23T08:31:22.321Z,100567.34
2023-02-23T08:33:49.792Z,100565.56
2023-02-23T08:36:16.414Z,100569.03
2023-02-23T08:38:43.041Z,100579.41
2023-02-23T08:41:09.729Z,100571.63
2023-02-23T08:43:36.393Z,100572.50
2023-02-23T08:46:02.865Z,100581.22
2023-02-23T08:48:29.303Z,100581.28
2023-02-23T08:50:57.567Z,100583.91
2023-02-23T08:53:25.710Z,100585.75
2023-02-23T08:56:11.231Z,100584.84
2023-02-23T08:58:37.736Z,100586.56
2023-02-23T09:01:05.460Z,100591.84
2023-02-23T09:03:35.263Z,100590.13
2023-02-23T09:06:10.550Z,100593.56
2023-02-23T09:08:37.248Z,100591.81
2023-02-23T09:11:03.920Z,100602.25
2023-02-23T09:13:30.368Z,100590.03
2023-02-23T09:15:57.004Z,100595.22
2023-02-23T09:18:29.461Z,100597.81
2023-02-23T09:20:56.595Z,100602.16
2023-02-23T09:23:24.178Z,100595.16
2023-02-23T09:25:50.727Z,100596.00
2023-02-23T09:28:19.725Z,100599.44
2023-02-23T09:30:47.128Z,100597.69
2023-02-23T09:33:14.221Z,100603.75
2023-02-23T09:35:41.370Z,100596.72
2023-02-23T09:38:08.832Z,100605.34
2023-02-23T09:40:53.382Z,100610.59
2023-02-23T09:43:45.185Z,100612.28
2023-02-23T09:46:29.402Z,100614.03
2023-02-23T09:48:58.836Z,100614.09
2023-02-23T09:51:26.085Z,100623.66
2023-02-23T09:53:55.561Z,100615.84
2023-02-23T09:56:43.989Z,100618.41
2023-02-23T09:59:15.603Z,100629.72
2023-02-23T10:01:48.296Z,100627.13
2023-02-23T10:04:26.816Z,100630.63
2023-02-23T10:07:15.210Z,100634.91
2023-02-23T10:09:41.561Z,100627.94
2023-02-23T10:12:27.039Z,100641.78
2023-02-23T10:15:01.117Z,100646.22
2023-02-23T10:17:55.568Z,100643.69
2023-02-23T10:20:42.207Z,100637.63
2023-02-23T10:23:16.923Z,100647.19
2023-02-23T10:25:48.054Z,100650.66
2023-02-23T10:28:21.829Z,100648.13
2023-02-23T10:30:50.644Z,100664.72
2023-02-23T10:33:38.199Z,100667.31
2023-02-23T10:36:19.665Z,100664.69
2023-02-23T10:38:46.735Z,100666.53
2023-02-23T10:41:14.975Z,100664.75
2023-02-23T10:43:41.970Z,100666.50
2023-02-23T10:46:19.030Z,100662.19
2023-02-23T10:48:47.625Z,100673.47
2023-02-23T10:51:28.426Z,100667.41
2023-02-23T10:53:55.572Z,100676.97
2023-02-23T10:56:23.315Z,100659.59
2023-02-23T10:58:49.719Z,100671.84
2023-02-23T11:01:32.843Z,100661.38
2023-02-23T11:04:32.743Z,100665.72
2023-02-23T11:07:16.516Z,100660.56
2023-02-23T11:09:47.556Z,100667.53
2023-02-23T11:12:22.390Z,100666.63
2023-02-23T11:14:54.349Z,100670.94
2023-02-23T11:17:37.714Z,100675.34
2023-02-23T11:20:43.158Z,100671.88
2023-02-23T11:23:16.845Z,100678.00
2023-02-23T11:25:45.871Z,100674.53
2023-02-23T11:28:25.073Z,100681.53
2023-02-23T11:30:51.684Z,100679.78
2023-02-23T11:33:25.413Z,100678.03
2023-02-23T11:36:17.601Z,100678.84
2023-02-23T11:38:46.733Z,100676.25
2023-02-23T11:41:24.425Z,100675.41
2023-02-23T11:43:56.857Z,100662.34
2023-02-23T11:46:24.462Z,100669.22
2023-02-23T11:49:00.004Z,100666.59
2023-02-23T11:51:28.584Z,100666.53
2023-02-23T11:53:55.802Z,100668.25
2023-02-23T11:56:25.643Z,100665.59
2023-02-23T11:58:59.548Z,100666.38
2023-02-23T12:01:45.553Z,100666.38
2023-02-23T12:04:30.369Z,100662.78
2023-02-23T12:07:25.882Z,100661.03
2023-02-23T12:10:00.914Z,100659.31
2023-02-23T12:12:29.661Z,100683.00
2023-02-23T12:15:09.527Z,100666.50
2023-02-23T12:17:48.797Z,100665.66
2023-02-23T12:20:21.537Z,100666.59
2023-02-23T12:23:20.086Z,100668.34
2023-02-23T12:25:49.144Z,100654.53
2023-02-23T12:28:37.099Z,100668.47
2023-02-23T12:31:24.258Z,100664.97
2023-02-23T12:33:59.009Z,100665.88
2023-02-23T12:36:39.112Z,100679.81
2023-02-23T12:39:24.492Z,100678.09
2023-02-23T12:42:15.422Z,100676.31
2023-02-23T12:44:49.592Z,100679.78
2023-02-23T12:47:34.325Z,100676.31
2023-02-23T12:50:33.652Z,100683.34
2023-02-23T12:53:21.071Z,100672.06
2023-02-23T12:55:53.268Z,100674.69
2023-02-23T12:58:29.481Z,100668.59
2023-02-23T13:01:03.960Z,100678.13
2023-02-23T13:03:51.017Z,100670.28
2023-02-23T13:06:39.694Z,100670.28
2023-02-23T13:09:30.228Z,100668.47
2023-02-23T13:12:08.125Z,100670.19
2023-02-23T13:14:39.774Z,100667.63
2023-02-23T13:17:28.609Z,100671.09
2023-02-23T13:20:01.555Z,100673.75
2023-02-23T13:23:19.490Z,100677.22
2023-02-23T13:26:04.333Z,100679.78
2023-02-23T13:28:57.162Z,100672.78
2023-02-23T13:31:31.126Z,100672.75
2023-02-23T13:33:59.825Z,100681.44
2023-02-23T13:36:29.735Z,100679.66
2023-02-23T13:39:19.436Z,100678.88
2023-02-23T13:41:46.039Z,100672.81
2023-02-23T13:44:27.325Z,100680.66
2023-02-23T13:47:06.657Z,100676.31
2023-02-23T13:49:51.319Z,100678.91
2023-02-23T13:52:39.829Z,100676.31
2023-02-23T13:55:40.098Z,100674.53
2023-02-23T13:58:16.529Z,100675.38
2023-02-23T14:00:44.254Z,100678.00
2023-02-23T14:03:24.259Z,100686.66
2023-02-23T14:05:56.640Z,100694.56
2023-02-23T14:08:37.114Z,100686.72
2023-02-23T14:11:05.216Z,100679.78
2023-02-23T14:13:34.355Z,100682.41
2023-02-23T14:16:11.714Z,100681.53
2023-02-23T14:19:31.936Z,100678.88
2023-02-23T14:22:06.585Z,100687.59
2023-02-23T14:24:33.035Z,100684.09
2023-02-23T14:27:14.793Z,100689.34
2023-02-23T14:29:46.734Z,100691.06
2023-02-23T14:32:13.350Z,100705.81
2023-02-23T14:34:54.214Z,100701.50
2023-02-23T14:37:34.745Z,100698.91
2023-02-23T14:40:08.951Z,100697.16
2023-02-23T14:42:38.634Z,100697.13
2023-02-23T14:45:17.959Z,100694.56
2023-02-23T14:47:47.701Z,100698.94
2023-02-23T14:50:25.756Z,100698.94
2023-02-23T14:52:54.991Z,100691.97
2023-02-23T14:55:29.096Z,100692.81
2023-02-23T14:57:56.597Z,100696.31
2023-02-23T15:00:28.797Z,100693.72
2023-02-23T15:02:58.839Z,100686.75
2023-02-23T15:05:40.926Z,100698.94
2023-02-23T15:08:10.838Z,100699.81
2023-02-23T15:10:40.631Z,100698.94
2023-02-23T15:13:29.006Z,100708.50
2023-02-23T15:15:57.680Z,100707.69
2023-02-23T15:18:36.055Z,100701.59
2023-02-23T15:21:13.852Z,100700.72
2023-02-23T15:23:40.603Z,100715.53
2023-02-23T15:26:31.790Z,100712.09
2023-02-23T15:29:10.582Z,100713.84
2023-02-23T15:31:41.084Z,100712.97
2023-02-23T15:34:11.573Z,100712.16
2023-02-23T15:36:41.163Z,100714.75
2023-02-23T15:39:13.757Z,100710.44
2023-02-23T15:41:43.727Z,100707.84
2023-02-23T15:44:20.257Z,100706.09
2023-02-23T15:46:53.061Z,100702.59
2023-02-23T15:49:21.898Z,100705.13
2023-02-23T15:51:52.597Z,100704.28
2023-02-23T15:54:46.837Z,100703.41
2023-02-23T15:57:30.221Z,100704.28
2023-02-23T16:00:07.819Z,100705.13
2023-02-23T16:02:36.959Z,100703.38
2023-02-23T16:05:20.263Z,100699.00
2023-02-23T16:07:46.747Z,100700.72
2023-02-23T16:10:26.578Z,100705.09
2023-02-23T16:12:54.200Z,100694.66
2023-02-23T16:15:26.837Z,100700.75
2023-02-23T16:18:00.159Z,100702.50
2023-02-23T16:20:38.495Z,100696.44
2023-02-23T16:23:06.949Z,100699.03
2023-02-23T16:25:34.469Z,100694.69
2023-02-23T16:28:18.036Z,100699.91
2023-02-23T16:30:57.182Z,100687.72
2023-02-23T16:33:28.131Z,100690.31
2023-02-23T16:36:18.844Z,100686.84
2023-02-23T16:39:03.688Z,100694.66
2023-02-23T16:41:32.925Z,100697.28
2023-02-23T16:44:05.553Z,100701.59
2023-02-23T16:46:53.426Z,100703.38
2023-02-23T16:49:23.259Z,100695.56
2023-02-23T16:51:50.799Z,100708.63
2023-02-23T16:54:17.305Z,100702.53
2023-02-23T16:56:44.376Z,100699.91
2023-02-23T16:59:15.757Z,100693.84
2023-02-23T17:01:42.240Z,100698.16
2023-02-23T17:04:15.288Z,100692.91
2023-02-23T17:06:43.448Z,100692.06
2023-02-23T17:09:11.168Z,100698.16
2023-02-23T17:11:37.868Z,100700.78
2023-02-23T17:14:04.350Z,100702.53
2023-02-23T17:16:30.825Z,100700.78
2023-02-23T17:18:59.502Z,100700.78
2023-02-23T17:21:26.138Z,100705.13
2023-02-23T17:23:53.283Z,100712.06
2023-02-23T17:26:24.841Z,100704.28
2023-02-23T17:28:52.212Z,100706.91
2023-02-23T17:31:20.129Z,100713.00
2023-02-23T17:33:47.277Z,100715.59
2023-02-23T17:36:16.606Z,100710.38
2023-02-23T17:38:45.902Z,100711.28
2023-02-23T17:41:17.857Z,100718.25
2023-02-23T17:43:44.573Z,100713.03
2023-02-23T17:46:12.089Z,100716.50
2023-02-23T17:48:40.650Z,100719.09
2023-02-23T17:51:09.118Z,100724.31
2023-02-23T17:53:36.351Z,100726.06
2023-02-23T17:56:02.838Z,100732.16
2023-02-23T17:58:29.755Z,100726.94
2023-02-23T18:00:58.230Z,100732.16
2023-02-23T18:03:25.963Z,100734.81
2023-02-23T18:05:52.845Z,100734.81
2023-02-23T18:08:20.203Z,100732.22
2023-02-23T18:10:54.508Z,100733.09
2023-02-23T18:13:21.262Z,100733.97
2023-02-23T18:15:52.619Z,100738.31
2023-02-23T18:18:19.260Z,100741.78
2023-02-23T18:20:54.286Z,100746.13
2023-02-23T18:23:21.640Z,100746.13
2023-02-23T18:25:49.430Z,100748.78
2023-02-23T18:28:17.435Z,100744.44
2023-02-23T18:30:44.858Z,100742.72
2023-02-23T18:33:12.946Z,100745.34
2023-02-23T18:35:44.885Z,100753.16
2023-02-23T18:38:13.788Z,100766.22
2023-02-23T18:40:40.958Z,100759.28
2023-02-23T18:43:07.959Z,100754.09
2023-02-23T18:45:34.811Z,100757.63
2023-02-23T18:48:01.328Z,100751.53
2023-02-23T18:50:27.967Z,100753.25
2023-02-23T18:52:56.491Z,100748.09
2023-02-23T18:55:23.972Z,100742.91
2023-02-23T18:57:52.671Z,100745.53
2023-02-23T19:00:20.079Z,100747.25
2023-02-23T19:02:47.275Z,100750.72
2023-02-23T19:05:14.282Z,100750.72
2023-02-23T19:07:41.150Z,100749.03
2023-02-23T19:10:12.052Z,100746.41
2023-02-23T19:12:39.532Z,100738.59
2023-02-23T19:15:07.805Z,100747.28
2023-02-23T19:17:35.103Z,100752.47
2023-02-23T19:20:01.825Z,100749.88
2023-02-23T19:22:29.482Z,100745.53
2023-02-23T19:24:56.133Z,100738.56
2023-02-23T19:27:22.892Z,100749.03
2023-02-23T19:29:49.386Z,100749.91
2023-02-23T19:32:16.758Z,100740.34
2023-02-23T19:34:46.350Z,100742.09
2023-02-23T19:37:13.226Z,100738.63
2023-02-23T19:39:39.957Z,100737.75
2023-02-23T19:42:07.206Z,100733.41
2023-02-23T19:44:34.021Z,100731.66
2023-02-23T19:47:00.558Z,100739.44
2023-02-23T19:49:27.050Z,100730.78
2023-02-23T19:51:53.588Z,100726.41
2023-02-23T19:54:20.714Z,100725.56
2023-02-23T19:56:49.809Z,100730.75
2023-02-23T19:59:16.562Z,100732.50
2023-02-23T20:01:45.233Z,100728.16
2023-02-23T20:04:11.785Z,100729.91
2023-02-23T20:06:46.806Z,100738.59
2023-02-23T20:09:14.552Z,100734.28
2023-02-23T20:11:42.510Z,100730.81
2023-02-23T20:14:09.965Z,100734.28
2023-02-23T20:16:37.200Z,100731.69
2023-02-23T20:19:05.723Z,100736.00
2023-02-23T20:21:32.678Z,100734.28
2023-02-23T20:24:01.458Z,100736.91
2023-02-23T20:26:30.898Z,100746.50
2023-02-23T20:28:58.568Z,100743.88
2023-02-23T20:31:36.924Z,100748.22
2023-02-23T20:34:10.888Z,100744.75
2023-02-23T20:36:37.782Z,100745.63
2023-02-23T20:39:04.848Z,100737.84
2023-02-23T20:41:31.588Z,100735.25
2023-02-23T20:44:00.854Z,100739.56
2023-02-23T20:46:30.654Z,100739.56
2023-02-23T20:48:57.561Z,100738.69
2023-02-23T20:51:23.986Z,100745.66
2023-02-23T20:53:50.416Z,100743.91
2023-02-23T20:56:19.205Z,100745.66
2023-02-23T20:58:46.228Z,100740.44
2023-02-23T21:01:23.493Z,100745.66
2023-02-23T21:03:52.199Z,100738.69
2023-02-23T21:06:24.461Z,100747.38
2023-02-23T21:08:55.552Z,100748.25
2023-02-23T21:11:27.138Z,100743.91
2023-02-23T21:13:53.590Z,100740.44
2023-02-23T21:16:23.658Z,100738.72
2023-02-23T21:19:04.210Z,100737.81
2023-02-23T21:21:42.917Z,100734.31
2023-02-23T21:24:09.612Z,100732.59
2023-02-23T21:26:36.629Z,100723.06
2023-02-23T21:29:04.367Z,100718.72
2023-02-23T21:31:31.289Z,100723.03
2023-02-23T21:33:57.804Z,100719.56
2023-02-23T21:36:24.269Z,100723.91
2023-02-23T21:38:51.360Z,100719.56
2023-02-23T21:41:18.261Z,100719.59
2023-02-23T21:43:45.040Z,100729.16
2023-02-23T21:46:16.607Z,100730.06
2023-02-23T21:48:43.652Z,100717.91
2023-02-23T21:51:13.496Z,100723.13
2023-02-23T21:53:41.114Z,100717.91
2023-02-23T21:56:13.191Z,100715.31
2023-02-23T21:58:43.926Z,100716.19
2023-02-23T22:01:31.492Z,100717.94
2023-02-23T22:03:58.039Z,100711.88
2023-02-23T22:06:27.754Z,100715.34
2023-02-23T22:08:54.836Z,100718.88
2023-02-23T22:11:27.155Z,100733.66
2023-02-23T22:13:59.023Z,100723.28
2023-02-23T22:16:32.193Z,100721.56
2023-02-23T22:19:03.414Z,100718.09
2023-02-23T22:21:39.114Z,100714.63
2023-02-23T22:24:06.742Z,100716.34
2023-02-23T22:26:36.070Z,100713.75
2023-02-23T22:29:03.020Z,100716.38
2023-02-23T22:31:29.887Z,100718.09
2023-02-23T22:33:56.896Z,100722.44
2023-02-23T22:36:23.537Z,100716.38
2023-02-23T22:38:50.088Z,100719.88
2023-02-23T22:41:16.652Z,100719.84
2023-02-23T22:43:46.630Z,100725.06
2023-02-23T22:46:14.482Z,100718.13
2023-02-23T22:48:45.177Z,100723.28
2023-02-23T22:51:14.119Z,100718.97
2023-02-23T22:53:40.733Z,100718.09
2023-02-23T22:56:08.473Z,100713.78
2023-02-23T22:58:36.218Z,100710.34
2023-02-23T23:01:05.709Z,100709.44
2023-02-23T23:03:36.496Z,100711.19
2023-02-23T23:06:05.358Z,100711.19
2023-02-23T23:08:37.208Z,100699.06
2023-02-23T23:11:09.461Z,100703.38
2023-02-23T23:13:51.764Z,100697.31
2023-02-23T23:16:31.003Z,100692.09
2023-02-23T23:19:02.705Z,100697.31
2023-02-23T23:21:32.026Z,100702.53
2023-02-23T23:24:01.608Z,100695.59
2023-02-23T23:26:29.120Z,100697.31
2023-02-23T23:28:58.576Z,100699.06
2023-02-23T23:31:29.308Z,100692.13
2023-02-23T23:34:01.556Z,100692.13
2023-02-23T23:36:32.390Z,100691.31
2023-02-23T23:38:59.710Z,100700.78
2023-02-23T23:41:28.493Z,100695.63
2023-02-23T23:43:57.901Z,100690.38
2023-02-23T23:46:30.745Z,100700.81
2023-02-23T23:49:08.465Z,100703.41
2023-02-23T23:51:50.283Z,100703.41
2023-02-23T23:54:26.186Z,100699.91
2023-02-23T23:56:52.757Z,100697.31
2023-02-23T23:59:22.918Z,100693.00
